Nogal, New Mexico
Current Conditions -  °F | °C
As of 8:58 PM on Friday 24 Oct 2014 (Local Time) from KHMN Reporting Station
Clear Clear  
Wind Chill: 62°   Ceiling: Unl
Heat Index: 62°   Visibility: 10mi
Dew Point: 48°   Wind: 5mph
Humidity: 60%   Direction: 80°E
Pressure: 30.19"   Gusts: NA
Location:  33.56°N, 105.71°W
Report Text: KHMN 250258Z AUTO 08004KT 10SM CLR 17/09 A3019 RMK AO2 SLP177 T01680091 52012 $
Loading
Personal Weather Stations






























Interactive Weather Map
Tropical Storm Tracking
New forecast layout! Learn more

10-Day Weather Forecast

Advertisements
Track Severe Weather on mobile